Terminal Aerodrome Forecast
Issued by NWS

Home | Current Version | Previous Version | Text Only | Print | Product List | Glossary On
Versions: 1 2 3 4 5 6 7 8 9 10 11 12 13 14 15 16 17 18 19
000
FTUS41 KGYX 302322
TAFRKD
TAF
KRKD 302322Z 3100/3124 35004KT P6SM BKN060
     FM310500 VRB03KT P6SM SCT060
     FM311300 04007KT P6SM SCT200
     FM311800 08007KT P6SM BKN050
      AMD LTD TO CLD VIS AND WIND=

USA.gov is the U.S. government's official web portal to all federal, state and local government web resources and services.